createdAt,value
2018-01-23T00:01:31.926Z,11.80
2018-01-23T00:04:00.199Z,11.07
2018-01-23T00:06:29.298Z,10.60
2018-01-23T00:08:57.609Z,11.67
2018-01-23T00:11:25.854Z,10.63
2018-01-23T00:13:54.124Z,10.80
2018-01-23T00:16:22.365Z,9.50
2018-01-23T00:18:50.960Z,8.60
2018-01-23T00:21:19.997Z,9.23
2018-01-23T00:23:48.237Z,9.00
2018-01-23T00:26:16.477Z,9.77
2018-01-23T00:28:44.962Z,9.00
2018-01-23T00:31:14.729Z,8.23
2018-01-23T00:33:42.969Z,8.00
2018-01-23T00:36:11.441Z,5.73
2018-01-23T00:38:40.717Z,8.83
2018-01-23T00:41:09.108Z,8.17
2018-01-23T00:43:37.384Z,8.10
2018-01-23T00:46:05.625Z,7.60
2018-01-23T00:48:34.620Z,6.70
2018-01-23T00:51:03.309Z,8.00
2018-01-23T00:53:31.544Z,8.87
2018-01-23T00:55:59.997Z,7.93
2018-01-23T00:58:28.267Z,7.60
2018-01-23T01:00:56.504Z,7.50
2018-01-23T01:03:24.749Z,7.17
2018-01-23T01:05:53.236Z,6.60
2018-01-23T01:08:22.244Z,7.30
2018-01-23T01:10:51.277Z,6.50
2018-01-23T01:13:19.729Z,6.20
2018-01-23T01:15:49.172Z,5.70
2018-01-23T01:18:17.638Z,6.67
2018-01-23T01:20:46.588Z,5.97
2018-01-23T01:23:15.596Z,5.87
2018-01-23T01:25:43.924Z,5.53
2018-01-23T01:28:12.195Z,6.90
2018-01-23T01:30:40.430Z,5.87
2018-01-23T01:33:08.676Z,5.43
2018-01-23T01:35:37.207Z,6.10
2018-01-23T01:38:05.444Z,5.47
2018-01-23T01:40:33.885Z,5.40
2018-01-23T01:43:02.310Z,4.27
2018-01-23T01:45:31.330Z,4.63
2018-01-23T01:47:59.577Z,5.13
2018-01-23T01:50:28.063Z,4.33
2018-01-23T01:52:57.078Z,4.23
2018-01-23T01:55:25.336Z,4.63
2018-01-23T01:57:53.870Z,4.00
2018-01-23T02:00:22.113Z,4.30
2018-01-23T02:02:50.358Z,3.07
2018-01-23T02:05:19.574Z,4.03
2018-01-23T02:07:47.832Z,3.17
2018-01-23T02:10:16.329Z,2.83
2018-01-23T02:12:45.480Z,3.10
2018-01-23T02:15:13.698Z,3.70
2018-01-23T02:17:42.714Z,3.27
2018-01-23T02:20:11.430Z,3.53
2018-01-23T02:22:40.414Z,4.27
2018-01-23T02:25:08.714Z,3.30
2018-01-23T02:27:36.984Z,3.37
2018-01-23T02:30:06.463Z,3.00
2018-01-23T02:32:34.783Z,3.80
2018-01-23T02:35:03.189Z,4.43
2018-01-23T02:37:32.209Z,3.93
2018-01-23T02:40:00.446Z,4.30
2018-01-23T02:42:28.977Z,4.27
2018-01-23T02:44:57.286Z,4.10
2018-01-23T02:47:25.533Z,4.50
2018-01-23T02:49:53.797Z,4.70
2018-01-23T02:52:22.045Z,2.77
2018-01-23T02:54:50.290Z,3.60
2018-01-23T02:57:18.555Z,3.97
2018-01-23T02:59:46.798Z,3.90
2018-01-23T03:02:15.046Z,3.07
2018-01-23T03:04:44.142Z,4.40
2018-01-23T03:07:12.376Z,4.63
2018-01-23T03:09:40.622Z,4.40
2018-01-23T03:12:08.898Z,3.70
2018-01-23T03:14:37.145Z,4.33
2018-01-23T03:17:05.598Z,3.90
2018-01-23T03:19:33.869Z,3.40
2018-01-23T03:22:02.105Z,3.83
2018-01-23T03:24:30.769Z,4.53
2018-01-23T03:27:00.126Z,3.50
2018-01-23T03:29:28.370Z,3.17
2018-01-23T03:31:56.613Z,3.70
2018-01-23T03:34:24.878Z,3.40
2018-01-23T03:36:53.122Z,3.40
2018-01-23T03:39:21.357Z,3.70
2018-01-23T03:41:50.390Z,3.73
2018-01-23T03:44:18.629Z,4.30
2018-01-23T03:46:46.879Z,2.97
2018-01-23T03:49:15.202Z,3.20
2018-01-23T03:51:43.450Z,3.57
2018-01-23T03:54:11.691Z,3.10
2018-01-23T03:56:39.971Z,3.60
2018-01-23T03:59:08.220Z,3.50
2018-01-23T04:01:36.461Z,3.40
2018-01-23T04:04:05.492Z,3.87
2018-01-23T04:06:33.729Z,4.10
2018-01-23T04:09:01.964Z,3.10
2018-01-23T04:11:30.717Z,2.80
2018-01-23T04:13:58.974Z,3.57
2018-01-23T04:16:27.990Z,2.80
2018-01-23T04:18:57.142Z,3.17
2018-01-23T04:21:25.381Z,3.90
2018-01-23T04:23:53.622Z,2.90
2018-01-23T04:26:21.962Z,3.57
2018-01-23T04:28:51.710Z,2.83
2018-01-23T04:31:20.725Z,3.70
2018-01-23T04:33:49.082Z,3.20
2018-01-23T04:36:18.093Z,4.30
2018-01-23T04:38:46.346Z,4.33
2018-01-23T04:41:14.617Z,2.97
2018-01-23T04:43:42.898Z,3.73
2018-01-23T04:46:11.922Z,3.87
2018-01-23T04:48:40.347Z,4.13
2018-01-23T04:51:08.653Z,2.80
2018-01-23T04:53:37.666Z,2.83
2018-01-23T04:56:07.017Z,4.67
2018-01-23T04:58:35.250Z,4.30
2018-01-23T05:01:03.502Z,3.80
2018-01-23T05:03:31.777Z,4.40
2018-01-23T05:06:00.797Z,3.60
2018-01-23T05:08:29.050Z,4.60
2018-01-23T05:10:57.826Z,3.97
2018-01-23T05:13:26.086Z,4.77
2018-01-23T05:15:54.331Z,4.33
2018-01-23T05:18:22.809Z,4.50
2018-01-23T05:20:51.054Z,4.53
2018-01-23T05:23:20.065Z,4.40
2018-01-23T05:25:48.342Z,4.80
2018-01-23T05:28:16.906Z,4.67
2018-01-23T05:30:46.138Z,4.67
2018-01-23T05:33:14.406Z,3.60
2018-01-23T05:35:42.653Z,4.17
2018-01-23T05:38:11.093Z,4.07
2018-01-23T05:40:39.658Z,5.67
2018-01-23T05:43:07.901Z,5.20
2018-01-23T05:45:36.162Z,5.00
2018-01-23T05:48:04.438Z,4.90
2018-01-23T05:50:33.441Z,5.17
2018-01-23T05:53:02.462Z,5.00
2018-01-23T05:55:30.738Z,4.57
2018-01-23T05:58:00.082Z,4.53
2018-01-23T06:00:28.813Z,4.70
2018-01-23T06:02:58.161Z,4.43
2018-01-23T06:05:26.398Z,5.10
2018-01-23T06:07:54.638Z,4.50
2018-01-23T06:10:23.097Z,5.30
2018-01-23T06:12:51.321Z,5.07
2018-01-23T06:15:20.325Z,5.20
2018-01-23T06:17:48.602Z,5.27
2018-01-23T06:20:16.850Z,6.10
2018-01-23T06:22:46.056Z,5.57
2018-01-23T06:25:15.390Z,4.37
2018-01-23T06:27:43.634Z,4.07
2018-01-23T06:30:12.186Z,4.87
2018-01-23T06:32:40.502Z,4.90
2018-01-23T06:35:09.548Z,4.80
2018-01-23T06:37:37.790Z,5.60
2018-01-23T06:40:06.068Z,5.47
2018-01-23T06:42:34.318Z,5.40
2018-01-23T06:45:02.584Z,5.43
2018-01-23T06:47:31.429Z,5.10
2018-01-23T06:49:59.706Z,5.50
2018-01-23T06:52:28.062Z,7.73
2018-01-23T06:54:56.337Z,6.17
2018-01-23T06:57:24.590Z,6.47
2018-01-23T06:59:53.682Z,6.03
2018-01-23T07:02:21.946Z,6.80
2018-01-23T07:04:50.205Z,5.23
2018-01-23T07:07:18.446Z,6.30
2018-01-23T07:09:47.170Z,5.30
2018-01-23T07:12:15.463Z,6.60
2018-01-23T07:14:43.658Z,5.67
2018-01-23T07:17:11.937Z,6.30
2018-01-23T07:19:40.168Z,6.70
2018-01-23T07:22:08.418Z,5.80
2018-01-23T07:24:36.701Z,6.47
2018-01-23T07:27:04.946Z,6.27
2018-01-23T07:29:33.958Z,6.20
2018-01-23T07:32:02.711Z,6.40
2018-01-23T07:34:30.959Z,5.30
2018-01-23T07:36:59.198Z,4.97
2018-01-23T07:39:27.474Z,4.57
2018-01-23T07:41:55.781Z,4.87
2018-01-23T07:44:24.760Z,5.07
2018-01-23T07:46:53.033Z,7.57
2018-01-23T07:49:21.274Z,6.00
2018-01-23T07:51:49.522Z,6.13
2018-01-23T07:54:18.290Z,5.43
2018-01-23T07:56:46.538Z,5.83
2018-01-23T07:59:14.777Z,6.70
2018-01-23T08:01:43.852Z,6.27
2018-01-23T08:04:12.078Z,5.30
2018-01-23T08:06:40.317Z,5.97
2018-01-23T08:09:08.585Z,5.87
2018-01-23T08:11:36.829Z,6.90
2018-01-23T08:14:05.070Z,6.40
2018-01-23T08:16:33.707Z,5.73
2018-01-23T08:19:01.979Z,5.80
2018-01-23T08:21:30.220Z,6.40
2018-01-23T08:23:58.486Z,5.30
2018-01-23T08:26:27.499Z,6.47
2018-01-23T08:28:55.832Z,6.63
2018-01-23T08:31:24.042Z,5.67
2018-01-23T08:33:52.926Z,5.93
2018-01-23T08:36:21.934Z,6.50
2018-01-23T08:38:50.419Z,5.73
2018-01-23T08:41:18.678Z,5.90
2018-01-23T08:43:46.914Z,6.03
2018-01-23T08:46:15.181Z,6.27
2018-01-23T08:48:43.428Z,6.53
2018-01-23T08:51:11.682Z,6.43
2018-01-23T08:53:40.086Z,5.80
2018-01-23T08:56:08.330Z,7.73
2018-01-23T08:58:37.342Z,5.87
2018-01-23T09:01:06.694Z,6.93
2018-01-23T09:03:34.938Z,6.70
2018-01-23T09:06:03.178Z,5.40
2018-01-23T09:08:31.458Z,5.73
2018-01-23T09:11:00.466Z,7.00
2018-01-23T09:13:29.474Z,6.30
2018-01-23T09:15:57.746Z,6.30
2018-01-23T09:18:26.278Z,5.30
2018-01-23T09:20:54.531Z,4.43
2018-01-23T09:23:22.998Z,5.50
2018-01-23T09:25:51.242Z,5.20
2018-01-23T09:28:19.681Z,4.30
2018-01-23T09:30:47.953Z,5.73
2018-01-23T09:33:16.190Z,5.73
2018-01-23T09:35:44.716Z,4.87
2018-01-23T09:38:12.980Z,5.40
2018-01-23T09:40:41.248Z,4.73
2018-01-23T09:43:09.458Z,5.27
2018-01-23T09:45:37.929Z,4.63
2018-01-23T09:48:06.177Z,4.80
2018-01-23T09:50:34.438Z,5.00
2018-01-23T09:53:02.834Z,5.20
2018-01-23T09:55:31.078Z,5.97
2018-01-23T09:58:00.551Z,4.67
2018-01-23T10:00:28.829Z,3.87
2018-01-23T10:02:57.080Z,4.70
2018-01-23T10:05:25.330Z,4.30
2018-01-23T10:07:53.890Z,3.27
2018-01-23T10:10:22.905Z,4.40
2018-01-23T10:12:51.152Z,3.50
2018-01-23T10:15:19.433Z,3.93
2018-01-23T10:17:47.690Z,3.90
2018-01-23T10:20:15.935Z,3.40
2018-01-23T10:22:44.205Z,3.60
2018-01-23T10:25:12.478Z,4.00
2018-01-23T10:27:40.772Z,4.10
2018-01-23T10:30:09.303Z,3.53
2018-01-23T10:32:38.318Z,3.90
2018-01-23T10:35:06.574Z,5.07
2018-01-23T10:37:35.910Z,4.50
2018-01-23T10:40:04.165Z,4.40
2018-01-23T10:42:33.170Z,3.90
2018-01-23T10:45:01.461Z,4.60
2018-01-23T10:47:29.705Z,4.30
2018-01-23T10:49:58.722Z,3.90
2018-01-23T10:52:27.174Z,3.03
2018-01-23T10:54:55.426Z,3.63
2018-01-23T10:57:23.670Z,4.00
2018-01-23T10:59:51.961Z,2.70
2018-01-23T11:02:20.561Z,3.70
2018-01-23T11:04:48.821Z,4.00
2018-01-23T11:07:17.090Z,3.70
2018-01-23T11:09:45.338Z,4.07
2018-01-23T11:12:13.591Z,4.93
2018-01-23T11:14:42.230Z,4.10
2018-01-23T11:17:10.474Z,3.60
2018-01-23T11:19:38.719Z,3.80
2018-01-23T11:22:07.754Z,3.70
2018-01-23T11:24:36.006Z,3.70
2018-01-23T11:27:05.031Z,4.70
2018-01-23T11:29:33.302Z,4.50
2018-01-23T11:32:01.550Z,4.13
2018-01-23T11:34:30.563Z,4.07
2018-01-23T11:36:59.178Z,3.70
2018-01-23T11:39:27.822Z,3.53
2018-01-23T11:41:56.838Z,4.87
2018-01-23T11:44:27.334Z,4.57
2018-01-23T11:46:56.357Z,4.70
2018-01-23T11:49:24.611Z,4.40
2018-01-23T11:51:52.894Z,5.03
2018-01-23T11:54:21.149Z,4.53
2018-01-23T11:56:49.403Z,4.60
2018-01-23T11:59:17.875Z,4.97
2018-01-23T12:01:46.126Z,5.37
2018-01-23T12:04:14.387Z,5.37
2018-01-23T12:06:42.674Z,4.37
2018-01-23T12:09:10.917Z,4.70
2018-01-23T12:11:39.174Z,5.33
2018-01-23T12:14:07.482Z,5.47
2018-01-23T12:16:35.819Z,5.10
2018-01-23T12:19:04.145Z,5.30
2018-01-23T12:21:33.461Z,4.80
2018-01-23T12:24:02.834Z,5.33
2018-01-23T12:26:31.070Z,4.80
2018-01-23T12:28:59.341Z,4.90
2018-01-23T12:31:27.586Z,4.60
2018-01-23T12:33:55.843Z,4.90
2018-01-23T12:36:24.894Z,5.73
2018-01-23T12:38:53.142Z,5.10
2018-01-23T12:41:21.730Z,5.80
2018-01-23T12:43:50.333Z,5.60
2018-01-23T12:46:18.582Z,4.23
2018-01-23T12:48:46.839Z,6.20
2018-01-23T12:51:15.876Z,5.87
2018-01-23T12:53:44.118Z,5.53
2018-01-23T12:56:12.378Z,5.30
2018-01-23T12:58:40.725Z,5.93
2018-01-23T13:01:08.957Z,6.80
2018-01-23T13:03:37.241Z,4.90
2018-01-23T13:06:05.747Z,5.90
2018-01-23T13:08:34.002Z,5.37
2018-01-23T13:11:02.427Z,6.43
2018-01-23T13:13:30.702Z,4.50
2018-01-23T13:15:58.955Z,5.03
2018-01-23T13:18:27.210Z,5.40
2018-01-23T13:20:55.478Z,4.20
2018-01-23T13:23:23.735Z,4.43
2018-01-23T13:25:52.758Z,5.13
2018-01-23T13:28:22.081Z,4.70
2018-01-23T13:30:50.330Z,5.70
2018-01-23T13:33:18.578Z,3.60
2018-01-23T13:35:46.854Z,4.60
2018-01-23T13:38:15.249Z,4.27
2018-01-23T13:40:44.266Z,3.00
2018-01-23T13:43:13.284Z,4.17
2018-01-23T13:45:43.725Z,3.63
2018-01-23T13:48:11.970Z,4.40
2018-01-23T13:50:40.566Z,4.67
2018-01-23T13:53:08.813Z,6.40
2018-01-23T13:55:37.066Z,5.50
2018-01-23T13:58:05.338Z,3.83
2018-01-23T14:00:33.586Z,4.20
2018-01-23T14:03:01.839Z,5.13
2018-01-23T14:05:30.109Z,4.83
2018-01-23T14:07:58.370Z,4.73
2018-01-23T14:10:26.625Z,4.43
2018-01-23T14:12:56.298Z,5.10
2018-01-23T14:15:24.541Z,5.00
2018-01-23T14:17:52.790Z,5.70
2018-01-23T14:20:21.066Z,4.97
2018-01-23T14:22:50.091Z,5.23
2018-01-23T14:25:18.334Z,3.90
2018-01-23T14:27:46.610Z,4.90
2018-01-23T14:30:14.875Z,5.00
2018-01-23T14:32:43.118Z,4.03
2018-01-23T14:35:11.696Z,4.43
2018-01-23T14:37:39.949Z,4.83
2018-01-23T14:40:08.198Z,4.57
2018-01-23T14:42:37.238Z,4.73
2018-01-23T14:45:05.790Z,3.40
2018-01-23T14:47:34.806Z,4.50
2018-01-23T14:50:03.082Z,4.20
2018-01-23T14:52:31.330Z,4.20
2018-01-23T14:54:59.586Z,5.03
2018-01-23T14:57:28.090Z,4.47
2018-01-23T14:59:56.334Z,5.47
2018-01-23T15:02:24.586Z,4.53
2018-01-23T15:04:52.864Z,5.10
2018-01-23T15:07:21.119Z,4.90
2018-01-23T15:09:49.361Z,5.53
2018-01-23T15:12:17.637Z,5.27
2018-01-23T15:14:46.026Z,4.37
2018-01-23T15:17:15.047Z,4.60
2018-01-23T15:19:43.842Z,4.33
2018-01-23T15:22:12.095Z,4.27
2018-01-23T15:24:41.120Z,4.50
2018-01-23T15:27:09.394Z,4.57
2018-01-23T15:29:37.643Z,3.90
2018-01-23T15:32:05.903Z,4.80
2018-01-23T15:34:34.945Z,4.70
2018-01-23T15:37:03.194Z,4.53
2018-01-23T15:39:31.450Z,3.83
2018-01-23T15:42:00.090Z,5.03
2018-01-23T15:44:28.340Z,4.27
2018-01-23T15:46:56.825Z,4.80
2018-01-23T15:49:25.959Z,4.60
2018-01-23T15:51:54.222Z,4.67
2018-01-23T15:54:22.470Z,4.47
2018-01-23T15:56:50.745Z,5.00
2018-01-23T15:59:18.998Z,4.80
2018-01-23T16:01:48.022Z,4.87
2018-01-23T16:04:16.498Z,4.33
2018-01-23T16:06:44.757Z,5.40
2018-01-23T16:09:13.774Z,4.60
2018-01-23T16:11:42.046Z,4.20
2018-01-23T16:14:10.297Z,5.63
2018-01-23T16:16:38.546Z,4.70
2018-01-23T16:19:06.834Z,4.53
2018-01-23T16:21:35.090Z,4.60
2018-01-23T16:24:03.330Z,4.10
2018-01-23T16:26:32.146Z,4.30
2018-01-23T16:29:00.398Z,4.27
2018-01-23T16:31:28.654Z,4.83
2018-01-23T16:33:57.687Z,4.67
2018-01-23T16:36:25.925Z,4.10
2018-01-23T16:38:54.938Z,3.70
2018-01-23T16:41:23.219Z,4.27
2018-01-23T16:43:51.486Z,4.10
2018-01-23T16:46:19.752Z,4.23
2018-01-23T16:48:49.524Z,4.10
2018-01-23T16:51:17.753Z,4.17
2018-01-23T16:53:45.998Z,3.83
2018-01-23T16:56:14.261Z,3.67
2018-01-23T16:58:42.506Z,3.77
2018-01-23T17:01:10.742Z,4.07
2018-01-23T17:03:39.026Z,5.13
2018-01-23T17:06:08.038Z,4.67
2018-01-23T17:08:36.294Z,4.67
2018-01-23T17:11:04.634Z,4.87
2018-01-23T17:13:33.118Z,4.30
2018-01-23T17:16:01.380Z,4.60
2018-01-23T17:18:30.818Z,3.97
2018-01-23T17:20:59.879Z,4.10
2018-01-23T17:23:28.170Z,4.67
2018-01-23T17:25:56.455Z,4.00
2018-01-23T17:28:24.717Z,4.10
2018-01-23T17:30:53.001Z,4.70
2018-01-23T17:33:21.576Z,4.70
2018-01-23T17:35:49.806Z,5.10
2018-01-23T17:38:18.062Z,3.50
2018-01-23T17:40:46.541Z,3.90
2018-01-23T17:43:15.558Z,3.93
2018-01-23T17:45:43.798Z,3.90
2018-01-23T17:48:12.078Z,5.10
2018-01-23T17:50:41.603Z,3.83
2018-01-23T17:53:10.619Z,3.80
2018-01-23T17:55:39.443Z,5.17
2018-01-23T17:58:08.858Z,4.20
2018-01-23T18:00:38.014Z,3.80
2018-01-23T18:03:07.506Z,3.93
2018-01-23T18:05:35.762Z,4.50
2018-01-23T18:08:04.217Z,3.63
2018-01-23T18:10:33.535Z,4.00
2018-01-23T18:13:01.893Z,4.10
2018-01-23T18:15:30.145Z,3.80
2018-01-23T18:17:58.470Z,4.17
2018-01-23T18:20:27.034Z,4.20
2018-01-23T18:22:55.274Z,3.97
2018-01-23T18:25:23.563Z,4.03
2018-01-23T18:27:51.806Z,3.60
2018-01-23T18:30:20.821Z,4.13
2018-01-23T18:32:49.270Z,3.83
2018-01-23T18:35:18.425Z,3.80
2018-01-23T18:37:46.658Z,3.93
2018-01-23T18:40:15.821Z,4.63
2018-01-23T18:42:44.489Z,4.43
2018-01-23T18:45:12.746Z,4.70
2018-01-23T18:47:41.070Z,4.70
2018-01-23T18:50:10.277Z,4.23
2018-01-23T18:52:40.878Z,4.00
2018-01-23T18:55:09.290Z,4.17
2018-01-23T18:57:38.307Z,4.10
2018-01-23T19:00:06.824Z,3.90
2018-01-23T19:02:36.324Z,3.80
2018-01-23T19:05:04.618Z,4.20
2018-01-23T19:07:33.018Z,4.57
2018-01-23T19:10:01.402Z,4.10
2018-01-23T19:12:30.422Z,5.90
2018-01-23T19:15:03.713Z,4.37
2018-01-23T19:17:36.025Z,4.47
2018-01-23T19:20:04.498Z,4.27
2018-01-23T19:22:36.809Z,3.77
2018-01-23T19:25:06.254Z,5.00
2018-01-23T19:27:34.797Z,4.20
2018-01-23T19:30:04.066Z,4.50
2018-01-23T19:32:36.559Z,5.20
2018-01-23T19:35:04.830Z,5.10
2018-01-23T19:37:40.161Z,4.87
2018-01-23T19:40:08.386Z,5.23
2018-01-23T19:42:37.408Z,5.90
2018-01-23T19:45:05.738Z,6.47
2018-01-23T19:47:35.022Z,7.07
2018-01-23T19:50:03.302Z,7.10
2018-01-23T19:52:31.841Z,6.90
2018-01-23T19:55:02.679Z,6.70
2018-01-23T19:57:33.332Z,6.83
2018-01-23T20:00:02.605Z,7.77
2018-01-23T20:02:32.082Z,6.97
2018-01-23T20:05:01.127Z,7.20
2018-01-23T20:07:29.398Z,6.83
2018-01-23T20:09:57.816Z,7.30
2018-01-23T20:12:26.589Z,7.50
2018-01-23T20:14:54.826Z,6.80
2018-01-23T20:17:23.143Z,7.73
2018-01-23T20:19:52.748Z,7.70
2018-01-23T20:22:20.975Z,7.70
2018-01-23T20:24:51.514Z,7.97
2018-01-23T20:27:19.865Z,7.57
2018-01-23T20:29:48.890Z,7.63
2018-01-23T20:32:17.210Z,7.93
2018-01-23T20:34:45.625Z,7.63
2018-01-23T20:37:14.725Z,7.10
2018-01-23T20:39:42.979Z,6.60
2018-01-23T20:42:13.677Z,6.13
2018-01-23T20:44:41.918Z,8.33
2018-01-23T20:47:10.948Z,7.00
2018-01-23T20:49:39.444Z,7.40
2018-01-23T20:52:08.886Z,6.63
2018-01-23T20:54:37.914Z,6.27
2018-01-23T20:57:09.066Z,7.27
2018-01-23T20:59:37.425Z,6.73
2018-01-23T21:02:05.803Z,6.73
2018-01-23T21:04:34.233Z,6.67
2018-01-23T21:07:02.495Z,7.07
2018-01-23T21:09:30.742Z,7.17
2018-01-23T21:11:59.024Z,6.90
2018-01-23T21:14:27.258Z,6.83
2018-01-23T21:16:55.514Z,5.90
2018-01-23T21:19:23.822Z,5.30
2018-01-23T21:21:52.241Z,6.30
2018-01-23T21:24:20.478Z,6.37
2018-01-23T21:26:49.002Z,4.93
2018-01-23T21:29:17.245Z,4.20
2018-01-23T21:31:45.486Z,5.47
2018-01-23T21:34:13.758Z,4.43
2018-01-23T21:36:42.002Z,4.57
2018-01-23T21:39:10.246Z,5.23
2018-01-23T21:41:39.288Z,5.00
2018-01-23T21:44:07.526Z,4.83
2018-01-23T21:46:35.769Z,3.77
2018-01-23T21:49:04.124Z,4.40
2018-01-23T21:51:32.370Z,3.70
2018-01-23T21:54:00.609Z,4.70
2018-01-23T21:56:29.638Z,4.30
2018-01-23T21:58:58.198Z,4.83
2018-01-23T22:01:27.218Z,4.10
2018-01-23T22:03:55.489Z,4.43
2018-01-23T22:06:23.746Z,5.10
2018-01-23T22:08:52.765Z,4.23
2018-01-23T22:11:21.197Z,4.33
2018-01-23T22:13:49.449Z,3.77
2018-01-23T22:16:17.746Z,4.73
2018-01-23T22:18:46.022Z,3.40
2018-01-23T22:21:14.269Z,4.70
2018-01-23T22:23:42.530Z,3.40
2018-01-23T22:26:10.806Z,3.93
2018-01-23T22:28:39.050Z,3.43
2018-01-23T22:31:07.302Z,3.90
2018-01-23T22:33:35.862Z,4.00
2018-01-23T22:36:04.113Z,3.97
2018-01-23T22:38:32.370Z,4.37
2018-01-23T22:41:00.646Z,3.80
2018-01-23T22:43:29.665Z,4.60
2018-01-23T22:45:57.906Z,4.03
2018-01-23T22:48:26.191Z,4.00
2018-01-23T22:50:55.213Z,3.93
2018-01-23T22:53:23.466Z,4.30
2018-01-23T22:55:52.866Z,3.03
2018-01-23T22:58:21.886Z,3.97
2018-01-23T23:00:50.446Z,3.70
2018-01-23T23:03:19.482Z,3.83
2018-01-23T23:05:47.722Z,4.23
2018-01-23T23:08:16.738Z,3.63
2018-01-23T23:10:45.010Z,3.70
2018-01-23T23:13:13.262Z,4.13
2018-01-23T23:15:42.282Z,3.90
2018-01-23T23:18:10.609Z,3.53
2018-01-23T23:20:38.850Z,3.67
2018-01-23T23:23:07.086Z,4.03
2018-01-23T23:25:36.121Z,4.50
2018-01-23T23:28:04.425Z,4.93
2018-01-23T23:30:32.674Z,3.67
2018-01-23T23:33:00.937Z,3.77
2018-01-23T23:35:29.197Z,3.70
2018-01-23T23:37:57.433Z,3.43
2018-01-23T23:40:25.886Z,3.47
2018-01-23T23:42:54.134Z,4.50
2018-01-23T23:45:23.138Z,3.50
2018-01-23T23:47:51.415Z,3.47
2018-01-23T23:50:19.654Z,3.03
2018-01-23T23:52:47.899Z,3.77
2018-01-23T23:55:16.163Z,3.50
2018-01-23T23:57:44.398Z,3.83
